METAR Data
IDs: Format: Raw Decoded Include TAF

Data at: 1944 UTC 25 Oct 2021

ETHB 251920Z 19010KT 9999 -RA BKN029 BKN070 11/07 Q1016 BLU BLU TEMPO WHT